地図

経路データ

SID SEASON NUMBER BASIN SUBBASIN NAME ISO_TIME NATURE LAT LON WMO_WIND WMO_PRES WMO_AGENCY TRACK_TYPE DIST2LAND LANDFALL IFLAG USA_AGENCY USA_ATCF_ID USA_LAT USA_LON USA_RECORD USA_STATUS USA_WIND USA_PRES USA_SSHS USA_R34_NE USA_R34_SE USA_R34_SW USA_R34_NW USA_R50_NE USA_R50_SE USA_R50_SW USA_R50_NW USA_R64_NE USA_R64_SE USA_R64_SW USA_R64_NW USA_POCI USA_ROCI USA_RMW USA_EYE TOKYO_LAT TOKYO_LON TOKYO_GRADE TOKYO_WIND TOKYO_PRES TOKYO_R50_DIR TOKYO_R50_LONG TOKYO_R50_SHORT TOKYO_R30_DIR TOKYO_R30_LONG TOKYO_R30_SHORT TOKYO_LAND CMA_LAT CMA_LON CMA_CAT CMA_WIND CMA_PRES HKO_LAT HKO_LON HKO_CAT HKO_WIND HKO_PRES NEWDELHI_LAT NEWDELHI_LON NEWDELHI_GRADE NEWDELHI_WIND NEWDELHI_PRES NEWDELHI_CI NEWDELHI_DP NEWDELHI_POCI REUNION_LAT REUNION_LON REUNION_TYPE REUNION_WIND REUNION_PRES REUNION_TNUM REUNION_CI REUNION_RMW REUNION_R34_NE REUNION_R34_SE REUNION_R34_SW REUNION_R34_NW REUNION_R50_NE REUNION_R50_SE REUNION_R50_SW REUNION_R50_NW REUNION_R64_NE REUNION_R64_SE REUNION_R64_SW REUNION_R64_NW BOM_LAT BOM_LON BOM_TYPE BOM_WIND BOM_PRES BOM_TNUM BOM_CI BOM_RMW BOM_R34_NE BOM_R34_SE BOM_R34_SW BOM_R34_NW BOM_R50_NE BOM_R50_SE BOM_R50_SW BOM_R50_NW BOM_R64_NE BOM_R64_SE BOM_R64_SW BOM_R64_NW BOM_ROCI BOM_POCI BOM_EYE BOM_POS_METHOD BOM_PRES_METHOD NADI_LAT NADI_LON NADI_CAT NADI_WIND NADI_PRES WELLINGTON_LAT WELLINGTON_LON WELLINGTON_WIND WELLINGTON_PRES DS824_LAT DS824_LON DS824_STAGE DS824_WIND DS824_PRES TD9636_LAT TD9636_LON TD9636_STAGE TD9636_WIND TD9636_PRES TD9635_LAT TD9635_LON TD9635_WIND TD9635_PRES TD9635_ROCI NEUMANN_LAT NEUMANN_LON NEUMANN_CLASS NEUMANN_WIND NEUMANN_PRES MLC_LAT MLC_LON MLC_CLASS MLC_WIND MLC_PRES USA_GUST BOM_GUST BOM_GUST_PER REUNION_GUST REUNION_GUST_PER USA_SEAHGT USA_SEARAD_NE USA_SEARAD_SE USA_SEARAD_SW USA_SEARAD_NW STORM_SPEED STORM_DIR
1955238N25275 1955 60 NA GM NOT_NAMED 1955-08-25 18:00:00 TS 24.6000 -85.1000 30 hurdat_atl main 240 240 O_____________ hurdat_atl AL051955 24.6000 -85.1000 TD 30 -1 5 342
1955238N25275 1955 60 NA GM NOT_NAMED 1955-08-25 21:00:00 TS 24.8225 -85.1800 main 264 264 P_____________ AL051955 24.8225 -85.1800 TD 32 -1 5 340
1955238N25275 1955 60 NA GM NOT_NAMED 1955-08-26 00:00:00 TS 25.1000 -85.3000 35 hurdat_atl main 298 298 O_____________ hurdat_atl AL051955 25.1000 -85.3000 TS 35 0 7 337
1955238N25275 1955 60 NA GM NOT_NAMED 1955-08-26 03:00:00 TS 25.4825 -85.4851 main 347 340 P_____________ AL051955 25.4825 -85.4851 TS 35 0 10 338
1955238N25275 1955 60 NA GM NOT_NAMED 1955-08-26 06:00:00 TS 26.0000 -85.7000 35 hurdat_atl main 340 321 O_____________ hurdat_atl AL051955 26.0000 -85.7000 TS 35 0 12 344
1955238N25275 1955 60 NA GM NOT_NAMED 1955-08-26 09:00:00 TS 26.6548 -85.8634 main 325 265 P_____________ AL051955 26.6548 -85.8634 TS 35 0 15 346
1955238N25275 1955 60 NA GM NOT_NAMED 1955-08-26 12:00:00 TS 27.4000 -86.1000 35 hurdat_atl main 265 198 O_____________ hurdat_atl AL051955 27.4000 -86.1000 TS 35 0 16 340
1955238N25275 1955 60 NA GM NOT_NAMED 1955-08-26 15:00:00 TS 28.1948 -86.4820 main 198 157 P_____________ AL051955 28.1948 -86.4820 TS 37 0 17 332
1955238N25275 1955 60 NA GM NOT_NAMED 1955-08-26 18:00:00 TS 28.9000 -87.0000 40 1004 hurdat_atl main 157 97 O_____________ hurdat_atl AL051955 28.9000 -87.0000 TS 40 1004 0 16 320
1955238N25275 1955 60 NA GM NOT_NAMED 1955-08-26 21:00:00 TS 29.3816 -87.6174 main 97 59 P_____________ AL051955 29.3816 -87.6174 TS 42 0 14 305
1955238N25275 1955 60 NA GM NOT_NAMED 1955-08-27 00:00:00 TS 29.7000 -88.3000 45 hurdat_atl main 62 38 O_____________ hurdat_atl AL051955 29.7000 -88.3000 TS 45 0 13 296
1955238N25275 1955 60 NA GM NOT_NAMED 1955-08-27 03:00:00 TS 29.9412 -88.9642 main 28 14 P_____________ AL051955 29.9412 -88.9642 TS 45 0 13 291
1955238N25275 1955 60 NA GM NOT_NAMED 1955-08-27 04:00:00 TS 30.0000 -89.2000 45 hurdat_atl main 14 9 O_____________ hurdat_atl AL051955 30.0000 -89.2000 L TS 45 0 13 284
1955238N25275 1955 60 NA GM NOT_NAMED 1955-08-27 06:00:00 TS 30.1000 -89.7000 45 hurdat_atl main 9 0 O_____________ hurdat_atl AL051955 30.1000 -89.7000 TS 45 0 14 281
1955238N25275 1955 60 NA NA NOT_NAMED 1955-08-27 09:00:00 TS 30.2114 -90.4886 main 0 0 P_____________ AL051955 30.2114 -90.4886 TS 42 0 14 278
1955238N25275 1955 60 NA NA NOT_NAMED 1955-08-27 12:00:00 TS 30.3000 -91.3000 40 hurdat_atl main 0 0 O_____________ hurdat_atl AL051955 30.3000 -91.3000 TS 40 0 15 278
1955238N25275 1955 60 NA NA NOT_NAMED 1955-08-27 15:00:00 TS 30.4154 -92.1597 main 0 0 P_____________ AL051955 30.4154 -92.1597 TS 37 0 14 278
1955238N25275 1955 60 NA NA NOT_NAMED 1955-08-27 18:00:00 TS 30.5000 -92.9000 35 hurdat_atl main 0 0 O_____________ hurdat_atl AL051955 30.5000 -92.9000 TS 35 0 11 275
1955238N25275 1955 60 NA NA NOT_NAMED 1955-08-27 21:00:00 TS 30.5068 -93.3829 main 0 0 P_____________ AL051955 30.5068 -93.3829 TS 32 -1 7 270
1955238N25275 1955 60 NA NA NOT_NAMED 1955-08-28 00:00:00 TS 30.5000 -93.7000 30 hurdat_atl main 0 0 O_____________ hurdat_atl AL051955 30.5000 -93.7000 TD 30 -1 5 271
1955238N25275 1955 60 NA NA NOT_NAMED 1955-08-28 03:00:00 TS 30.5198 -93.9652 main 0 0 P_____________ AL051955 30.5198 -93.9652 TD 27 -1 4 283
1955238N25275 1955 60 NA NA NOT_NAMED 1955-08-28 06:00:00 TS 30.6000 -94.2000 25 hurdat_atl main 0 0 O_____________ hurdat_atl AL051955 30.6000 -94.2000 TD 25 -1 5 299
1955238N25275 1955 60 NA NA NOT_NAMED 1955-08-28 09:00:00 TS 30.7700 -94.4999 main 0 0 P_____________ AL051955 30.7700 -94.4999 TD 25 -1 7 308
1955238N25275 1955 60 NA NA NOT_NAMED 1955-08-28 12:00:00 TS 31.0000 -94.8000 25 hurdat_atl main 0 0 O_____________ hurdat_atl AL051955 31.0000 -94.8000 TD 25 -1 7 315
1955238N25275 1955 60 NA NA NOT_NAMED 1955-08-28 15:00:00 TS 31.2475 -95.0624 main 0 0 P_____________ AL051955 31.2475 -95.0624 TD 25 -1 7 319
1955238N25275 1955 60 NA NA NOT_NAMED 1955-08-28 18:00:00 TS 31.5000 -95.3000 25 hurdat_atl main 0 O_____________ hurdat_atl AL051955 31.5000 -95.3000 TD 25 -1 6 321

IBTrACS Databaseについて

本データベースは、米国NOAAが公開する1842年以降の世界の熱帯低気圧のベストトラックデータアーカイブInternational Best Track Archive for Climate Stewardship (IBTrACS)を、ウェブで閲覧しやすい形式に変換したものです。

最終更新日:2021-12-06